sensor_id;sensor_type;location;lat;lon;timestamp;temperature;humidity
5962;DHT22;3007;50.770;0.250;2023-08-12T00:02:13;17.90;99.90
5962;DHT22;3007;50.770;0.250;2023-08-12T00:04:41;17.90;99.90
5962;DHT22;3007;50.770;0.250;2023-08-12T00:07:08;17.90;99.90
5962;DHT22;3007;50.770;0.250;2023-08-12T00:09:36;17.80;99.90
5962;DHT22;3007;50.770;0.250;2023-08-12T00:12:04;17.80;99.90
5962;DHT22;3007;50.770;0.250;2023-08-12T00:14:31;17.70;99.90
5962;DHT22;3007;50.770;0.250;2023-08-12T00:16:58;17.70;99.90
5962;DHT22;3007;50.770;0.250;2023-08-12T00:19:25;17.60;99.90
5962;DHT22;3007;50.770;0.250;2023-08-12T00:21:52;17.50;99.90
5962;DHT22;3007;50.770;0.250;2023-08-12T00:24:19;17.50;99.90
5962;DHT22;3007;50.770;0.250;2023-08-12T00:26:48;17.50;99.90
5962;DHT22;3007;50.770;0.250;2023-08-12T00:29:15;17.40;99.90
5962;DHT22;3007;50.770;0.250;2023-08-12T00:31:45;17.40;99.90
5962;DHT22;3007;50.770;0.250;2023-08-12T00:34:12;17.40;99.90
5962;DHT22;3007;50.770;0.250;2023-08-12T00:36:39;17.40;99.90
5962;DHT22;3007;50.770;0.250;2023-08-12T00:39:06;17.40;99.90
5962;DHT22;3007;50.770;0.250;2023-08-12T00:41:34;17.40;99.90
5962;DHT22;3007;50.770;0.250;2023-08-12T00:44:03;17.40;99.90
5962;DHT22;3007;50.770;0.250;2023-08-12T00:46:30;17.50;99.90
5962;DHT22;3007;50.770;0.250;2023-08-12T00:48:57;17.50;99.90
5962;DHT22;3007;50.770;0.250;2023-08-12T00:51:25;17.50;99.90
5962;DHT22;3007;50.770;0.250;2023-08-12T00:53:52;17.40;99.90
5962;DHT22;3007;50.770;0.250;2023-08-12T00:56:21;17.40;99.90
5962;DHT22;3007;50.770;0.250;2023-08-12T00:58:48;17.40;99.90
5962;DHT22;3007;50.770;0.250;2023-08-12T01:01:17;17.40;99.90
5962;DHT22;3007;50.770;0.250;2023-08-12T01:03:44;17.40;99.90
5962;DHT22;3007;50.770;0.250;2023-08-12T01:06:12;17.40;99.90
5962;DHT22;3007;50.770;0.250;2023-08-12T01:08:39;17.40;99.90
5962;DHT22;3007;50.770;0.250;2023-08-12T01:11:12;17.40;99.90
5962;DHT22;3007;50.770;0.250;2023-08-12T01:13:49;17.40;99.90
5962;DHT22;3007;50.770;0.250;2023-08-12T01:16:19;17.40;99.90
5962;DHT22;3007;50.770;0.250;2023-08-12T01:18:48;17.40;99.90
5962;DHT22;3007;50.770;0.250;2023-08-12T01:21:17;17.40;99.90
5962;DHT22;3007;50.770;0.250;2023-08-12T01:23:46;17.40;99.90
5962;DHT22;3007;50.770;0.250;2023-08-12T01:26:13;17.40;99.90
5962;DHT22;3007;50.770;0.250;2023-08-12T01:28:40;17.40;99.90
5962;DHT22;3007;50.770;0.250;2023-08-12T01:31:11;17.40;99.90
5962;DHT22;3007;50.770;0.250;2023-08-12T01:33:44;17.40;99.90
5962;DHT22;3007;50.770;0.250;2023-08-12T01:36:17;17.30;99.90
5962;DHT22;3007;50.770;0.250;2023-08-12T01:38:46;17.30;99.90
5962;DHT22;3007;50.770;0.250;2023-08-12T01:41:14;17.30;99.90
5962;DHT22;3007;50.770;0.250;2023-08-12T01:43:42;17.30;99.90
5962;DHT22;3007;50.770;0.250;2023-08-12T01:46:10;17.30;99.90
5962;DHT22;3007;50.770;0.250;2023-08-12T01:48:37;17.30;99.90
5962;DHT22;3007;50.770;0.250;2023-08-12T01:51:04;17.40;99.90
5962;DHT22;3007;50.770;0.250;2023-08-12T01:53:31;17.40;99.90
5962;DHT22;3007;50.770;0.250;2023-08-12T01:55:59;17.40;99.90
5962;DHT22;3007;50.770;0.250;2023-08-12T01:58:26;17.40;99.90
5962;DHT22;3007;50.770;0.250;2023-08-12T02:00:53;17.40;99.90
5962;DHT22;3007;50.770;0.250;2023-08-12T02:03:20;17.30;99.90
5962;DHT22;3007;50.770;0.250;2023-08-12T02:05:47;17.40;99.90
5962;DHT22;3007;50.770;0.250;2023-08-12T02:08:14;17.40;99.90
5962;DHT22;3007;50.770;0.250;2023-08-12T02:10:42;17.30;99.90
5962;DHT22;3007;50.770;0.250;2023-08-12T02:13:10;17.30;99.90
5962;DHT22;3007;50.770;0.250;2023-08-12T02:15:38;17.30;99.90
5962;DHT22;3007;50.770;0.250;2023-08-12T02:18:05;17.30;99.90
5962;DHT22;3007;50.770;0.250;2023-08-12T02:20:32;17.30;99.90
5962;DHT22;3007;50.770;0.250;2023-08-12T02:22:59;17.30;99.90
5962;DHT22;3007;50.770;0.250;2023-08-12T02:25:26;17.30;99.90
5962;DHT22;3007;50.770;0.250;2023-08-12T02:27:53;17.20;99.90
5962;DHT22;3007;50.770;0.250;2023-08-12T02:30:21;17.30;99.90
5962;DHT22;3007;50.770;0.250;2023-08-12T02:32:48;17.30;99.90
5962;DHT22;3007;50.770;0.250;2023-08-12T02:35:17;17.30;99.90
5962;DHT22;3007;50.770;0.250;2023-08-12T02:37:45;17.30;99.90
5962;DHT22;3007;50.770;0.250;2023-08-12T02:40:12;17.30;99.90
5962;DHT22;3007;50.770;0.250;2023-08-12T02:42:39;17.30;99.90
5962;DHT22;3007;50.770;0.250;2023-08-12T02:45:07;17.30;99.90
5962;DHT22;3007;50.770;0.250;2023-08-12T02:47:35;17.20;99.90
5962;DHT22;3007;50.770;0.250;2023-08-12T02:50:02;17.20;99.90
5962;DHT22;3007;50.770;0.250;2023-08-12T02:52:29;17.20;99.90
5962;DHT22;3007;50.770;0.250;2023-08-12T02:54:56;17.20;99.90
5962;DHT22;3007;50.770;0.250;2023-08-12T02:57:24;17.20;99.90
5962;DHT22;3007;50.770;0.250;2023-08-12T02:59:51;17.20;99.90
5962;DHT22;3007;50.770;0.250;2023-08-12T03:02:18;17.20;99.90
5962;DHT22;3007;50.770;0.250;2023-08-12T03:04:46;17.30;99.90
5962;DHT22;3007;50.770;0.250;2023-08-12T03:07:13;17.20;99.90
5962;DHT22;3007;50.770;0.250;2023-08-12T03:09:40;17.20;99.90
5962;DHT22;3007;50.770;0.250;2023-08-12T03:12:11;17.30;99.90
5962;DHT22;3007;50.770;0.250;2023-08-12T03:14:38;17.20;99.90
5962;DHT22;3007;50.770;0.250;2023-08-12T03:17:06;17.20;99.90
5962;DHT22;3007;50.770;0.250;2023-08-12T03:19:33;17.20;99.90
5962;DHT22;3007;50.770;0.250;2023-08-12T03:22:01;17.30;99.90
5962;DHT22;3007;50.770;0.250;2023-08-12T03:24:28;17.20;99.90
5962;DHT22;3007;50.770;0.250;2023-08-12T03:26:55;17.20;99.90
5962;DHT22;3007;50.770;0.250;2023-08-12T03:29:22;17.20;99.90
5962;DHT22;3007;50.770;0.250;2023-08-12T03:31:49;17.20;99.90
5962;DHT22;3007;50.770;0.250;2023-08-12T03:34:16;17.20;99.90
5962;DHT22;3007;50.770;0.250;2023-08-12T03:36:44;17.20;99.90
5962;DHT22;3007;50.770;0.250;2023-08-12T03:39:13;17.20;99.90
5962;DHT22;3007;50.770;0.250;2023-08-12T03:41:40;17.20;99.90
5962;DHT22;3007;50.770;0.250;2023-08-12T03:44:07;17.20;99.90
5962;DHT22;3007;50.770;0.250;2023-08-12T03:46:34;17.20;99.90
5962;DHT22;3007;50.770;0.250;2023-08-12T03:49:01;17.20;99.90
5962;DHT22;3007;50.770;0.250;2023-08-12T03:51:28;17.20;99.90
5962;DHT22;3007;50.770;0.250;2023-08-12T03:53:56;17.10;99.90
5962;DHT22;3007;50.770;0.250;2023-08-12T03:56:25;17.20;99.90
5962;DHT22;3007;50.770;0.250;2023-08-12T03:58:52;17.10;99.90
5962;DHT22;3007;50.770;0.250;2023-08-12T04:01:18;17.10;99.90
5962;DHT22;3007;50.770;0.250;2023-08-12T04:03:45;17.10;99.90
5962;DHT22;3007;50.770;0.250;2023-08-12T04:06:12;17.10;99.90
5962;DHT22;3007;50.770;0.250;2023-08-12T04:08:40;17.10;99.90
5962;DHT22;3007;50.770;0.250;2023-08-12T04:11:07;17.10;99.90
5962;DHT22;3007;50.770;0.250;2023-08-12T04:13:35;17.00;99.90
5962;DHT22;3007;50.770;0.250;2023-08-12T04:16:02;17.00;99.90
5962;DHT22;3007;50.770;0.250;2023-08-12T04:18:29;17.00;99.90
5962;DHT22;3007;50.770;0.250;2023-08-12T04:20:56;17.00;99.90
5962;DHT22;3007;50.770;0.250;2023-08-12T04:23:24;16.90;99.90
5962;DHT22;3007;50.770;0.250;2023-08-12T04:25:52;16.90;99.90
5962;DHT22;3007;50.770;0.250;2023-08-12T04:28:20;16.90;99.90
5962;DHT22;3007;50.770;0.250;2023-08-12T04:30:50;16.90;99.90
5962;DHT22;3007;50.770;0.250;2023-08-12T04:33:18;16.90;99.90
5962;DHT22;3007;50.770;0.250;2023-08-12T04:35:46;16.80;99.90
5962;DHT22;3007;50.770;0.250;2023-08-12T04:38:13;16.90;99.90
5962;DHT22;3007;50.770;0.250;2023-08-12T04:40:41;16.90;99.90
5962;DHT22;3007;50.770;0.250;2023-08-12T04:43:09;16.90;99.90
5962;DHT22;3007;50.770;0.250;2023-08-12T04:45:36;16.90;99.90
5962;DHT22;3007;50.770;0.250;2023-08-12T04:48:06;16.90;99.90
5962;DHT22;3007;50.770;0.250;2023-08-12T04:50:34;16.90;99.90
5962;DHT22;3007;50.770;0.250;2023-08-12T04:53:01;16.90;99.90
5962;DHT22;3007;50.770;0.250;2023-08-12T04:55:28;16.80;99.90
5962;DHT22;3007;50.770;0.250;2023-08-12T04:57:55;16.70;99.90
5962;DHT22;3007;50.770;0.250;2023-08-12T05:00:22;16.60;99.90
5962;DHT22;3007;50.770;0.250;2023-08-12T05:02:49;16.60;99.90
5962;DHT22;3007;50.770;0.250;2023-08-12T05:05:17;16.50;99.90
5962;DHT22;3007;50.770;0.250;2023-08-12T05:07:45;16.50;99.90
5962;DHT22;3007;50.770;0.250;2023-08-12T05:10:15;16.50;99.90
5962;DHT22;3007;50.770;0.250;2023-08-12T05:12:42;16.50;99.90
5962;DHT22;3007;50.770;0.250;2023-08-12T05:15:09;16.50;99.90
5962;DHT22;3007;50.770;0.250;2023-08-12T05:17:37;16.60;99.90
5962;DHT22;3007;50.770;0.250;2023-08-12T05:20:05;16.60;99.90
5962;DHT22;3007;50.770;0.250;2023-08-12T05:22:34;16.70;99.90
5962;DHT22;3007;50.770;0.250;2023-08-12T05:25:01;16.70;99.90
5962;DHT22;3007;50.770;0.250;2023-08-12T05:27:28;16.80;99.90
5962;DHT22;3007;50.770;0.250;2023-08-12T05:29:55;16.80;99.90
5962;DHT22;3007;50.770;0.250;2023-08-12T05:32:22;16.90;99.90
5962;DHT22;3007;50.770;0.250;2023-08-12T05:34:52;16.90;99.90
5962;DHT22;3007;50.770;0.250;2023-08-12T05:37:19;16.90;99.90
5962;DHT22;3007;50.770;0.250;2023-08-12T05:39:48;17.00;99.90
5962;DHT22;3007;50.770;0.250;2023-08-12T05:42:15;17.00;99.90
5962;DHT22;3007;50.770;0.250;2023-08-12T05:44:42;17.10;99.90
5962;DHT22;3007;50.770;0.250;2023-08-12T05:47:09;17.20;99.90
5962;DHT22;3007;50.770;0.250;2023-08-12T05:49:36;17.20;99.90
5962;DHT22;3007;50.770;0.250;2023-08-12T05:52:03;17.20;99.90
5962;DHT22;3007;50.770;0.250;2023-08-12T05:54:30;17.20;99.90
5962;DHT22;3007;50.770;0.250;2023-08-12T05:56:59;17.30;99.90
5962;DHT22;3007;50.770;0.250;2023-08-12T05:59:26;17.40;99.90
5962;DHT22;3007;50.770;0.250;2023-08-12T06:01:54;17.40;99.90
5962;DHT22;3007;50.770;0.250;2023-08-12T06:04:22;17.40;99.90
5962;DHT22;3007;50.770;0.250;2023-08-12T06:06:52;17.40;99.90
5962;DHT22;3007;50.770;0.250;2023-08-12T06:09:19;17.50;99.90
5962;DHT22;3007;50.770;0.250;2023-08-12T06:11:46;17.60;99.90
5962;DHT22;3007;50.770;0.250;2023-08-12T06:14:14;17.90;99.90
5962;DHT22;3007;50.770;0.250;2023-08-12T06:16:41;18.20;99.90
5962;DHT22;3007;50.770;0.250;2023-08-12T06:19:08;18.70;99.90
5962;DHT22;3007;50.770;0.250;2023-08-12T06:21:35;19.00;99.90
5962;DHT22;3007;50.770;0.250;2023-08-12T06:24:03;19.00;99.90
5962;DHT22;3007;50.770;0.250;2023-08-12T06:26:30;19.00;99.90
5962;DHT22;3007;50.770;0.250;2023-08-12T06:28:57;19.20;99.90
5962;DHT22;3007;50.770;0.250;2023-08-12T06:31:26;19.50;99.90
5962;DHT22;3007;50.770;0.250;2023-08-12T06:33:53;19.40;99.90
5962;DHT22;3007;50.770;0.250;2023-08-12T06:36:19;19.60;99.90
5962;DHT22;3007;50.770;0.250;2023-08-12T06:38:46;20.30;99.90
5962;DHT22;3007;50.770;0.250;2023-08-12T06:41:13;20.70;99.90
5962;DHT22;3007;50.770;0.250;2023-08-12T06:43:40;20.80;99.90
5962;DHT22;3007;50.770;0.250;2023-08-12T06:46:07;21.20;99.90
5962;DHT22;3007;50.770;0.250;2023-08-12T06:48:36;21.80;99.90
5962;DHT22;3007;50.770;0.250;2023-08-12T06:51:03;22.30;99.90
5962;DHT22;3007;50.770;0.250;2023-08-12T06:53:36;22.90;99.90
5962;DHT22;3007;50.770;0.250;2023-08-12T06:56:03;23.20;99.90
5962;DHT22;3007;50.770;0.250;2023-08-12T06:58:30;23.10;99.90
5962;DHT22;3007;50.770;0.250;2023-08-12T07:00:58;22.90;99.90
5962;DHT22;3007;50.770;0.250;2023-08-12T07:03:28;22.70;99.90
5962;DHT22;3007;50.770;0.250;2023-08-12T07:05:57;22.40;99.90
5962;DHT22;3007;50.770;0.250;2023-08-12T07:08:24;22.10;99.90
5962;DHT22;3007;50.770;0.250;2023-08-12T07:10:53;22.30;99.90
5962;DHT22;3007;50.770;0.250;2023-08-12T07:13:19;22.70;99.90
5962;DHT22;3007;50.770;0.250;2023-08-12T07:15:47;23.10;99.90
5962;DHT22;3007;50.770;0.250;2023-08-12T07:18:14;23.40;99.90
5962;DHT22;3007;50.770;0.250;2023-08-12T07:20:41;23.80;99.90
5962;DHT22;3007;50.770;0.250;2023-08-12T07:23:10;23.80;99.90
5962;DHT22;3007;50.770;0.250;2023-08-12T07:25:37;23.40;99.90
5962;DHT22;3007;50.770;0.250;2023-08-12T07:28:04;23.00;99.90
5962;DHT22;3007;50.770;0.250;2023-08-12T07:30:34;23.00;99.90
5962;DHT22;3007;50.770;0.250;2023-08-12T07:33:01;22.70;99.90
5962;DHT22;3007;50.770;0.250;2023-08-12T07:35:28;22.50;99.90
5962;DHT22;3007;50.770;0.250;2023-08-12T07:37:55;22.60;99.90
5962;DHT22;3007;50.770;0.250;2023-08-12T07:40:24;22.60;99.90
5962;DHT22;3007;50.770;0.250;2023-08-12T07:42:52;22.70;99.90
5962;DHT22;3007;50.770;0.250;2023-08-12T07:45:22;23.00;99.90
5962;DHT22;3007;50.770;0.250;2023-08-12T07:47:49;23.00;99.90
5962;DHT22;3007;50.770;0.250;2023-08-12T07:50:17;23.20;99.90
5962;DHT22;3007;50.770;0.250;2023-08-12T07:52:44;23.40;99.90
5962;DHT22;3007;50.770;0.250;2023-08-12T07:55:11;23.40;99.90
5962;DHT22;3007;50.770;0.250;2023-08-12T07:57:40;23.20;99.90
5962;DHT22;3007;50.770;0.250;2023-08-12T08:00:08;23.00;99.90
5962;DHT22;3007;50.770;0.250;2023-08-12T08:02:35;22.80;99.90
5962;DHT22;3007;50.770;0.250;2023-08-12T08:05:03;22.80;99.90
5962;DHT22;3007;50.770;0.250;2023-08-12T08:09:57;22.30;99.90
5962;DHT22;3007;50.770;0.250;2023-08-12T08:12:24;21.90;99.90
5962;DHT22;3007;50.770;0.250;2023-08-12T08:14:53;21.70;99.90
5962;DHT22;3007;50.770;0.250;2023-08-12T08:17:21;21.50;99.90
5962;DHT22;3007;50.770;0.250;2023-08-12T08:19:48;21.50;99.90
5962;DHT22;3007;50.770;0.250;2023-08-12T08:22:15;21.60;99.90
5962;DHT22;3007;50.770;0.250;2023-08-12T08:24:42;21.90;99.90
5962;DHT22;3007;50.770;0.250;2023-08-12T08:27:09;22.20;99.90
5962;DHT22;3007;50.770;0.250;2023-08-12T08:29:36;22.50;99.90
5962;DHT22;3007;50.770;0.250;2023-08-12T08:32:05;22.80;99.90
5962;DHT22;3007;50.770;0.250;2023-08-12T08:34:35;23.00;99.90
5962;DHT22;3007;50.770;0.250;2023-08-12T08:37:02;22.90;99.90
5962;DHT22;3007;50.770;0.250;2023-08-12T08:39:29;23.10;99.90
5962;DHT22;3007;50.770;0.250;2023-08-12T08:41:58;23.30;99.90
5962;DHT22;3007;50.770;0.250;2023-08-12T08:44:29;23.50;99.90
5962;DHT22;3007;50.770;0.250;2023-08-12T08:46:59;23.60;99.90
5962;DHT22;3007;50.770;0.250;2023-08-12T08:49:28;23.90;99.90
5962;DHT22;3007;50.770;0.250;2023-08-12T08:51:56;24.00;99.90
5962;DHT22;3007;50.770;0.250;2023-08-12T08:54:25;24.30;99.90
5962;DHT22;3007;50.770;0.250;2023-08-12T08:56:52;24.40;99.90
5962;DHT22;3007;50.770;0.250;2023-08-12T08:59:19;24.50;99.90
5962;DHT22;3007;50.770;0.250;2023-08-12T09:01:49;24.50;99.90
5962;DHT22;3007;50.770;0.250;2023-08-12T09:04:20;24.50;99.90
5962;DHT22;3007;50.770;0.250;2023-08-12T09:06:50;24.40;99.90
5962;DHT22;3007;50.770;0.250;2023-08-12T09:09:22;24.30;99.90
5962;DHT22;3007;50.770;0.250;2023-08-12T09:11:51;24.30;99.90
5962;DHT22;3007;50.770;0.250;2023-08-12T09:14:19;24.30;99.90
5962;DHT22;3007;50.770;0.250;2023-08-12T09:16:46;24.00;99.90
5962;DHT22;3007;50.770;0.250;2023-08-12T09:19:13;23.80;99.90
5962;DHT22;3007;50.770;0.250;2023-08-12T09:21:41;23.60;99.90
5962;DHT22;3007;50.770;0.250;2023-08-12T09:24:10;23.50;99.90
5962;DHT22;3007;50.770;0.250;2023-08-12T09:26:37;23.40;99.90
5962;DHT22;3007;50.770;0.250;2023-08-12T09:29:04;23.40;99.90
5962;DHT22;3007;50.770;0.250;2023-08-12T09:31:31;23.30;99.90
5962;DHT22;3007;50.770;0.250;2023-08-12T09:33:59;23.20;99.90
5962;DHT22;3007;50.770;0.250;2023-08-12T09:36:30;23.20;99.90
5962;DHT22;3007;50.770;0.250;2023-08-12T09:38:57;23.10;99.90
5962;DHT22;3007;50.770;0.250;2023-08-12T09:41:27;23.10;99.90
5962;DHT22;3007;50.770;0.250;2023-08-12T09:43:55;23.10;99.90
5962;DHT22;3007;50.770;0.250;2023-08-12T09:46:23;23.10;99.90
5962;DHT22;3007;50.770;0.250;2023-08-12T09:48:50;23.20;99.90
5962;DHT22;3007;50.770;0.250;2023-08-12T09:51:18;23.10;99.90
5962;DHT22;3007;50.770;0.250;2023-08-12T09:53:47;23.00;99.90
5962;DHT22;3007;50.770;0.250;2023-08-12T09:56:18;23.00;99.90
5962;DHT22;3007;50.770;0.250;2023-08-12T09:58:49;23.10;99.90
5962;DHT22;3007;50.770;0.250;2023-08-12T10:01:18;23.20;99.90
5962;DHT22;3007;50.770;0.250;2023-08-12T10:03:49;23.40;99.90
5962;DHT22;3007;50.770;0.250;2023-08-12T10:06:17;23.40;99.90
5962;DHT22;3007;50.770;0.250;2023-08-12T10:08:46;23.40;99.90
5962;DHT22;3007;50.770;0.250;2023-08-12T10:11:14;23.30;99.90
5962;DHT22;3007;50.770;0.250;2023-08-12T10:13:41;23.30;99.90
5962;DHT22;3007;50.770;0.250;2023-08-12T10:16:10;23.20;99.90
5962;DHT22;3007;50.770;0.250;2023-08-12T10:18:39;23.20;99.90
5962;DHT22;3007;50.770;0.250;2023-08-12T10:21:09;23.10;99.90
5962;DHT22;3007;50.770;0.250;2023-08-12T10:23:36;23.00;99.90
5962;DHT22;3007;50.770;0.250;2023-08-12T10:26:05;23.10;99.90
5962;DHT22;3007;50.770;0.250;2023-08-12T10:28:33;23.10;99.90
5962;DHT22;3007;50.770;0.250;2023-08-12T10:31:03;23.00;99.90
5962;DHT22;3007;50.770;0.250;2023-08-12T10:33:35;22.90;99.90
5962;DHT22;3007;50.770;0.250;2023-08-12T10:36:03;22.80;99.90
5962;DHT22;3007;50.770;0.250;2023-08-12T10:38:32;22.80;99.90
5962;DHT22;3007;50.770;0.250;2023-08-12T10:41:17;22.80;99.90
5962;DHT22;3007;50.770;0.250;2023-08-12T10:43:55;22.90;99.90
5962;DHT22;3007;50.770;0.250;2023-08-12T10:46:23;23.00;99.90
5962;DHT22;3007;50.770;0.250;2023-08-12T10:48:59;23.00;99.90
5962;DHT22;3007;50.770;0.250;2023-08-12T10:51:40;23.10;99.90
5962;DHT22;3007;50.770;0.250;2023-08-12T10:54:20;23.20;99.90
5962;DHT22;3007;50.770;0.250;2023-08-12T10:57:07;23.30;99.90
5962;DHT22;3007;50.770;0.250;2023-08-12T10:59:52;23.30;99.90
5962;DHT22;3007;50.770;0.250;2023-08-12T11:05:45;23.20;99.90
5962;DHT22;3007;50.770;0.250;2023-08-12T11:08:13;23.30;99.90
5962;DHT22;3007;50.770;0.250;2023-08-12T11:10:40;23.30;99.90
5962;DHT22;3007;50.770;0.250;2023-08-12T11:13:08;23.30;99.90
5962;DHT22;3007;50.770;0.250;2023-08-12T11:15:37;23.30;99.90
5962;DHT22;3007;50.770;0.250;2023-08-12T11:18:05;23.40;99.90
5962;DHT22;3007;50.770;0.250;2023-08-12T11:25:54;22.30;99.90
5962;DHT22;3007;50.770;0.250;2023-08-12T11:28:21;23.60;99.90
5962;DHT22;3007;50.770;0.250;2023-08-12T11:30:48;23.50;99.90
5962;DHT22;3007;50.770;0.250;2023-08-12T11:33:16;23.50;99.90
5962;DHT22;3007;50.770;0.250;2023-08-12T11:35:44;23.40;99.90
5962;DHT22;3007;50.770;0.250;2023-08-12T11:38:11;23.50;99.90
5962;DHT22;3007;50.770;0.250;2023-08-12T11:40:38;23.60;99.90
5962;DHT22;3007;50.770;0.250;2023-08-12T11:43:06;23.70;99.90
5962;DHT22;3007;50.770;0.250;2023-08-12T11:45:33;23.80;99.90
5962;DHT22;3007;50.770;0.250;2023-08-12T11:48:00;23.80;99.90
5962;DHT22;3007;50.770;0.250;2023-08-12T11:50:27;23.90;99.90
5962;DHT22;3007;50.770;0.250;2023-08-12T11:52:55;23.90;99.90
5962;DHT22;3007;50.770;0.250;2023-08-12T11:55:23;24.00;99.90
5962;DHT22;3007;50.770;0.250;2023-08-12T11:57:51;23.90;99.90
5962;DHT22;3007;50.770;0.250;2023-08-12T12:00:20;23.90;99.90
5962;DHT22;3007;50.770;0.250;2023-08-12T12:02:48;23.80;99.90
5962;DHT22;3007;50.770;0.250;2023-08-12T12:05:16;23.90;99.90
5962;DHT22;3007;50.770;0.250;2023-08-12T12:07:43;24.00;99.90
5962;DHT22;3007;50.770;0.250;2023-08-12T12:10:13;24.00;99.90
5962;DHT22;3007;50.770;0.250;2023-08-12T12:12:41;23.80;99.90
5962;DHT22;3007;50.770;0.250;2023-08-12T12:15:08;23.40;99.90
5962;DHT22;3007;50.770;0.250;2023-08-12T12:17:40;23.10;99.90
5962;DHT22;3007;50.770;0.250;2023-08-12T12:20:07;22.60;99.90
5962;DHT22;3007;50.770;0.250;2023-08-12T12:22:37;22.40;99.90
5962;DHT22;3007;50.770;0.250;2023-08-12T12:25:07;22.20;99.90
5962;DHT22;3007;50.770;0.250;2023-08-12T12:27:34;22.00;99.90
5962;DHT22;3007;50.770;0.250;2023-08-12T12:30:01;21.90;99.90
5962;DHT22;3007;50.770;0.250;2023-08-12T12:32:28;21.70;99.90
5962;DHT22;3007;50.770;0.250;2023-08-12T12:34:56;21.60;99.90
5962;DHT22;3007;50.770;0.250;2023-08-12T12:37:23;21.70;99.90
5962;DHT22;3007;50.770;0.250;2023-08-12T12:39:50;21.80;99.90
5962;DHT22;3007;50.770;0.250;2023-08-12T12:42:17;21.90;99.90
5962;DHT22;3007;50.770;0.250;2023-08-12T12:44:44;22.00;99.90
5962;DHT22;3007;50.770;0.250;2023-08-12T12:47:11;22.10;99.90
5962;DHT22;3007;50.770;0.250;2023-08-12T12:49:38;22.30;99.90
5962;DHT22;3007;50.770;0.250;2023-08-12T12:52:06;22.30;99.90
5962;DHT22;3007;50.770;0.250;2023-08-12T12:54:33;22.40;99.90
5962;DHT22;3007;50.770;0.250;2023-08-12T12:57:00;22.50;99.90
5962;DHT22;3007;50.770;0.250;2023-08-12T12:59:27;22.60;99.90
5962;DHT22;3007;50.770;0.250;2023-08-12T13:01:54;22.60;99.90
5962;DHT22;3007;50.770;0.250;2023-08-12T13:04:21;22.70;99.90
5962;DHT22;3007;50.770;0.250;2023-08-12T13:06:48;22.60;99.90
5962;DHT22;3007;50.770;0.250;2023-08-12T13:09:16;22.70;99.90
5962;DHT22;3007;50.770;0.250;2023-08-12T13:11:43;22.60;99.90
5962;DHT22;3007;50.770;0.250;2023-08-12T13:14:10;22.50;99.90
5962;DHT22;3007;50.770;0.250;2023-08-12T13:16:37;22.50;99.90
5962;DHT22;3007;50.770;0.250;2023-08-12T13:19:04;22.50;99.90
5962;DHT22;3007;50.770;0.250;2023-08-12T13:21:30;22.60;99.90
5962;DHT22;3007;50.770;0.250;2023-08-12T13:23:59;22.60;99.90
5962;DHT22;3007;50.770;0.250;2023-08-12T13:26:28;22.60;99.90
5962;DHT22;3007;50.770;0.250;2023-08-12T13:28:55;22.70;99.90
5962;DHT22;3007;50.770;0.250;2023-08-12T13:31:21;22.70;99.90
5962;DHT22;3007;50.770;0.250;2023-08-12T13:33:49;22.70;99.90
5962;DHT22;3007;50.770;0.250;2023-08-12T13:36:16;22.60;99.90
5962;DHT22;3007;50.770;0.250;2023-08-12T13:38:43;22.50;99.90
5962;DHT22;3007;50.770;0.250;2023-08-12T13:41:10;22.50;99.90
5962;DHT22;3007;50.770;0.250;2023-08-12T13:43:38;22.40;99.90
5962;DHT22;3007;50.770;0.250;2023-08-12T13:46:05;22.20;99.90
5962;DHT22;3007;50.770;0.250;2023-08-12T13:48:32;22.00;99.90
5962;DHT22;3007;50.770;0.250;2023-08-12T13:51:00;22.00;99.90
5962;DHT22;3007;50.770;0.250;2023-08-12T13:53:27;21.90;99.90
5962;DHT22;3007;50.770;0.250;2023-08-12T13:55:54;22.00;99.90
5962;DHT22;3007;50.770;0.250;2023-08-12T13:58:20;22.10;99.90
5962;DHT22;3007;50.770;0.250;2023-08-12T14:00:49;22.20;99.90
5962;DHT22;3007;50.770;0.250;2023-08-12T14:03:15;22.30;99.90
5962;DHT22;3007;50.770;0.250;2023-08-12T14:05:44;22.30;99.90
5962;DHT22;3007;50.770;0.250;2023-08-12T14:08:10;22.40;99.90
5962;DHT22;3007;50.770;0.250;2023-08-12T14:10:37;22.50;99.90
5962;DHT22;3007;50.770;0.250;2023-08-12T14:13:04;22.50;99.90
5962;DHT22;3007;50.770;0.250;2023-08-12T14:15:32;22.50;99.90
5962;DHT22;3007;50.770;0.250;2023-08-12T14:18:00;22.60;99.90
5962;DHT22;3007;50.770;0.250;2023-08-12T14:20:27;22.60;99.90
5962;DHT22;3007;50.770;0.250;2023-08-12T14:22:54;22.70;99.90
5962;DHT22;3007;50.770;0.250;2023-08-12T14:25:20;22.60;99.90
5962;DHT22;3007;50.770;0.250;2023-08-12T14:27:47;22.60;99.90
5962;DHT22;3007;50.770;0.250;2023-08-12T14:30:17;22.50;99.90
5962;DHT22;3007;50.770;0.250;2023-08-12T14:32:44;22.40;99.90
5962;DHT22;3007;50.770;0.250;2023-08-12T14:35:12;22.30;99.90
5962;DHT22;3007;50.770;0.250;2023-08-12T14:37:39;22.30;99.90
5962;DHT22;3007;50.770;0.250;2023-08-12T14:40:07;22.30;99.90
5962;DHT22;3007;50.770;0.250;2023-08-12T14:42:34;22.30;99.90
5962;DHT22;3007;50.770;0.250;2023-08-12T14:45:01;22.20;99.90
5962;DHT22;3007;50.770;0.250;2023-08-12T14:47:28;22.20;99.90
5962;DHT22;3007;50.770;0.250;2023-08-12T14:49:55;22.10;99.90
5962;DHT22;3007;50.770;0.250;2023-08-12T14:52:24;22.10;99.90
5962;DHT22;3007;50.770;0.250;2023-08-12T14:54:51;22.10;99.90
5962;DHT22;3007;50.770;0.250;2023-08-12T14:57:18;22.00;99.90
5962;DHT22;3007;50.770;0.250;2023-08-12T14:59:45;22.00;99.90
5962;DHT22;3007;50.770;0.250;2023-08-12T15:02:16;21.90;99.90
5962;DHT22;3007;50.770;0.250;2023-08-12T15:04:42;21.80;99.90
5962;DHT22;3007;50.770;0.250;2023-08-12T15:07:09;21.80;99.90
5962;DHT22;3007;50.770;0.250;2023-08-12T15:09:37;21.90;99.90
5962;DHT22;3007;50.770;0.250;2023-08-12T15:12:05;22.00;99.90
5962;DHT22;3007;50.770;0.250;2023-08-12T15:14:32;22.00;99.90
5962;DHT22;3007;50.770;0.250;2023-08-12T15:16:59;21.90;99.90
5962;DHT22;3007;50.770;0.250;2023-08-12T15:19:25;22.00;99.90
5962;DHT22;3007;50.770;0.250;2023-08-12T15:21:54;22.20;99.90
5962;DHT22;3007;50.770;0.250;2023-08-12T15:24:21;22.30;99.90
5962;DHT22;3007;50.770;0.250;2023-08-12T15:26:49;22.30;99.90
5962;DHT22;3007;50.770;0.250;2023-08-12T15:29:16;22.30;99.90
5962;DHT22;3007;50.770;0.250;2023-08-12T15:31:43;22.30;99.90
5962;DHT22;3007;50.770;0.250;2023-08-12T15:34:10;22.10;99.90
5962;DHT22;3007;50.770;0.250;2023-08-12T15:36:37;21.90;99.90
5962;DHT22;3007;50.770;0.250;2023-08-12T15:39:06;21.90;99.90
5962;DHT22;3007;50.770;0.250;2023-08-12T15:41:33;21.70;99.90
5962;DHT22;3007;50.770;0.250;2023-08-12T15:44:02;21.60;99.90
5962;DHT22;3007;50.770;0.250;2023-08-12T15:46:28;21.50;99.90
5962;DHT22;3007;50.770;0.250;2023-08-12T15:48:55;21.40;99.90
5962;DHT22;3007;50.770;0.250;2023-08-12T15:51:22;21.40;99.90
5962;DHT22;3007;50.770;0.250;2023-08-12T15:53:49;21.40;99.90
5962;DHT22;3007;50.770;0.250;2023-08-12T15:56:16;21.50;99.90
5962;DHT22;3007;50.770;0.250;2023-08-12T15:58:42;21.70;99.90
5962;DHT22;3007;50.770;0.250;2023-08-12T16:01:11;21.80;99.90
5962;DHT22;3007;50.770;0.250;2023-08-12T16:03:38;21.80;99.90
5962;DHT22;3007;50.770;0.250;2023-08-12T16:06:04;21.80;99.90
5962;DHT22;3007;50.770;0.250;2023-08-12T16:08:31;21.80;99.90
5962;DHT22;3007;50.770;0.250;2023-08-12T16:10:59;21.90;99.90
5962;DHT22;3007;50.770;0.250;2023-08-12T16:13:26;21.80;99.90
5962;DHT22;3007;50.770;0.250;2023-08-12T16:15:53;21.70;99.90
5962;DHT22;3007;50.770;0.250;2023-08-12T16:18:22;21.60;99.90